createdAt,value
2022-09-11T04:46:02.987Z,13.32
2022-09-11T04:47:03.943Z,13.32
2022-09-11T04:48:03.930Z,13.39
2022-09-11T04:49:03.916Z,13.41
2022-09-11T04:50:03.922Z,13.44
2022-09-11T04:51:03.892Z,13.45
2022-09-11T04:52:03.891Z,13.45
2022-09-11T04:53:03.890Z,13.46
2022-09-11T04:54:03.869Z,13.45
2022-09-11T04:55:03.889Z,13.44
2022-09-11T04:56:03.845Z,13.45
2022-09-11T04:57:03.835Z,13.45
2022-09-11T04:58:03.822Z,13.46
2022-09-11T04:59:03.809Z,13.49
2022-09-11T05:00:03.808Z,13.48
2022-09-11T05:01:03.868Z,13.45
2022-09-11T05:02:03.843Z,13.45
2022-09-11T05:03:03.764Z,13.45
2022-09-11T05:04:03.759Z,13.44
2022-09-11T05:05:03.758Z,13.41
2022-09-11T05:06:03.764Z,13.38
2022-09-11T05:07:03.720Z,13.36
2022-09-11T05:08:03.715Z,13.29
2022-09-11T05:09:03.702Z,13.28
2022-09-11T05:10:03.698Z,13.29
2022-09-11T05:11:03.695Z,13.29
2022-09-11T05:12:03.684Z,13.32
2022-09-11T05:13:03.654Z,13.36
2022-09-11T05:14:03.648Z,13.32
2022-09-11T05:15:03.635Z,13.32
2022-09-11T05:16:03.721Z,13.28
2022-09-11T05:17:03.626Z,13.28
2022-09-11T05:18:03.618Z,13.32
2022-09-11T05:19:03.585Z,13.33
2022-09-11T05:20:03.580Z,13.41
2022-09-11T05:21:03.592Z,13.42
2022-09-11T05:22:03.565Z,13.45
2022-09-11T05:23:03.545Z,13.46
2022-09-11T05:24:03.535Z,13.39
2022-09-11T05:25:03.531Z,13.33
2022-09-11T05:26:03.537Z,13.29
2022-09-11T05:27:03.500Z,13.30
2022-09-11T05:28:03.499Z,13.33
2022-09-11T05:29:03.480Z,13.41
2022-09-11T05:30:03.477Z,13.38
2022-09-11T05:31:03.482Z,13.41
2022-09-11T05:32:03.451Z,13.38
2022-09-11T05:33:03.432Z,13.41
2022-09-11T05:34:03.431Z,13.33
2022-09-11T05:35:03.414Z,13.29
2022-09-11T05:36:03.431Z,13.32
2022-09-11T05:37:03.383Z,13.28
2022-09-11T05:38:03.380Z,13.28
2022-09-11T05:39:03.367Z,13.28
2022-09-11T05:40:03.378Z,13.30
2022-09-11T05:41:03.355Z,13.39
2022-09-11T05:42:03.334Z,13.42
2022-09-11T05:43:03.317Z,13.46
2022-09-11T05:44:03.324Z,13.45
2022-09-11T05:45:03.297Z,13.41
2022-09-11T05:46:03.349Z,13.42
2022-09-11T05:47:03.298Z,13.45
2022-09-11T05:48:03.268Z,13.48
2022-09-11T05:49:03.249Z,13.52
2022-09-11T05:50:03.266Z,13.57
2022-09-11T05:51:03.247Z,13.54
2022-09-11T05:52:03.232Z,13.54
2022-09-11T05:53:03.220Z,13.46
2022-09-11T05:54:03.208Z,13.46
2022-09-11T05:55:03.196Z,13.49
2022-09-11T05:56:03.202Z,13.55
2022-09-11T05:57:07.448Z,13.52
2022-09-11T05:58:03.153Z,13.48
2022-09-11T05:59:03.143Z,13.44
2022-09-11T06:00:03.137Z,13.42
2022-09-11T06:01:03.156Z,13.45
2022-09-11T06:02:03.193Z,13.49
2022-09-11T06:03:03.098Z,13.52
2022-09-11T06:04:03.099Z,13.55
2022-09-11T06:05:03.073Z,13.60
2022-09-11T06:06:03.067Z,13.55
2022-09-11T06:07:03.068Z,13.48
2022-09-11T06:08:03.049Z,13.49
2022-09-11T06:09:03.031Z,13.51
2022-09-11T06:10:03.592Z,13.46
2022-09-11T06:11:03.006Z,13.45
2022-09-11T06:12:03.029Z,13.46
2022-09-11T06:13:02.987Z,13.48
2022-09-11T06:14:02.975Z,13.51
2022-09-11T06:15:02.959Z,13.57
2022-09-11T06:16:02.958Z,13.63
2022-09-11T06:17:02.951Z,13.69
2022-09-11T06:18:02.951Z,13.69
2022-09-11T06:19:02.936Z,13.67
2022-09-11T06:20:02.935Z,13.59
2022-09-11T06:21:02.923Z,13.54
2022-09-11T06:22:02.936Z,13.57
2022-09-11T06:23:06.164Z,13.52
2022-09-11T06:24:02.893Z,13.51
2022-09-11T06:25:02.856Z,13.52
2022-09-11T06:26:02.843Z,13.55
2022-09-11T06:27:02.840Z,13.54
2022-09-11T06:28:02.825Z,13.57
2022-09-11T06:29:02.813Z,13.62
2022-09-11T06:30:02.799Z,13.66
2022-09-11T06:31:02.890Z,13.71
2022-09-11T06:32:02.792Z,13.78
2022-09-11T06:33:02.765Z,13.82
2022-09-11T06:34:02.784Z,13.85
2022-09-11T06:35:02.745Z,13.91
2022-09-11T06:36:02.735Z,13.88
2022-09-11T06:37:02.733Z,13.79
2022-09-11T06:38:02.709Z,13.79
2022-09-11T06:39:02.718Z,13.78
2022-09-11T06:40:02.733Z,13.77
2022-09-11T06:41:02.681Z,13.66
2022-09-11T06:42:02.680Z,13.67
2022-09-11T06:43:02.654Z,13.69
2022-09-11T06:44:02.649Z,13.73
2022-09-11T06:45:02.631Z,13.73
2022-09-11T06:46:02.677Z,13.71
2022-09-11T06:47:02.629Z,13.71
2022-09-11T06:48:02.607Z,13.71
2022-09-11T06:49:02.605Z,13.70
2022-09-11T06:50:02.596Z,13.66
2022-09-11T06:51:02.569Z,13.66
2022-09-11T06:52:02.577Z,13.70
2022-09-11T06:53:02.543Z,13.75
2022-09-11T06:54:02.541Z,13.78
2022-09-11T06:55:02.530Z,13.82
2022-09-11T06:56:02.513Z,13.81
2022-09-11T06:57:02.519Z,13.84
2022-09-11T06:58:02.492Z,13.88
2022-09-11T06:59:02.476Z,13.91
2022-09-11T07:00:02.483Z,13.95
2022-09-11T07:01:02.601Z,14.00
2022-09-11T07:02:02.639Z,13.96
2022-09-11T07:03:02.509Z,13.96
2022-09-11T07:04:02.465Z,14.00
2022-09-11T07:05:02.412Z,14.02
2022-09-11T07:06:02.410Z,13.96
2022-09-11T07:07:02.411Z,13.92
2022-09-11T07:08:02.384Z,13.99
2022-09-11T07:09:02.380Z,13.97
2022-09-11T07:10:02.363Z,14.03
2022-09-11T07:11:02.344Z,14.00
2022-09-11T07:12:02.374Z,14.00
2022-09-11T07:13:02.335Z,13.97
2022-09-11T07:14:02.325Z,13.96
2022-09-11T07:15:02.304Z,14.00
2022-09-11T07:16:02.339Z,14.04
2022-09-11T07:17:02.323Z,14.09
2022-09-11T07:18:02.273Z,14.20
2022-09-11T07:19:02.292Z,14.22
2022-09-11T07:20:02.251Z,14.22
2022-09-11T07:21:02.263Z,14.21
2022-09-11T07:22:02.239Z,14.14
2022-09-11T07:23:02.215Z,14.07
2022-09-11T07:24:02.202Z,14.07
2022-09-11T07:25:07.011Z,14.07
2022-09-11T07:26:02.220Z,13.96
2022-09-11T07:27:02.179Z,13.97
2022-09-11T07:28:02.180Z,13.99
2022-09-11T07:29:02.160Z,13.96
2022-09-11T07:30:02.164Z,13.99
2022-09-11T07:31:02.198Z,13.99
2022-09-11T07:32:02.133Z,14.04
2022-09-11T07:33:02.102Z,14.10
2022-09-11T07:34:02.107Z,14.12
2022-09-11T07:35:02.083Z,14.06
2022-09-11T07:36:02.084Z,14.07
2022-09-11T07:37:02.058Z,14.07
2022-09-11T07:38:02.074Z,14.18
2022-09-11T07:39:02.060Z,14.29
2022-09-11T07:40:02.062Z,14.36
2022-09-11T07:41:02.028Z,14.43
2022-09-11T07:42:02.021Z,14.39
2022-09-11T07:43:01.994Z,14.37
2022-09-11T07:44:02.026Z,14.42
2022-09-11T07:45:01.972Z,14.40
2022-09-11T07:46:02.024Z,14.50
2022-09-11T07:47:01.973Z,14.55
2022-09-11T07:48:01.953Z,14.60
2022-09-11T07:49:01.943Z,14.58
2022-09-11T07:50:01.946Z,14.64
2022-09-11T07:51:01.902Z,14.69
2022-09-11T07:52:01.920Z,14.81
2022-09-11T07:53:01.886Z,14.89
2022-09-11T07:54:01.878Z,14.96
2022-09-11T07:55:01.862Z,14.84
2022-09-11T07:56:01.874Z,14.68
2022-09-11T07:57:01.853Z,14.72
2022-09-11T07:58:01.933Z,14.73
2022-09-11T07:59:01.824Z,14.78
2022-09-11T08:00:01.820Z,14.68
2022-09-11T08:01:01.857Z,14.75
2022-09-11T08:02:01.859Z,14.75
2022-09-11T08:03:01.795Z,14.81
2022-09-11T08:04:01.772Z,14.80
2022-09-11T08:05:01.762Z,14.73
2022-09-11T08:06:01.748Z,14.69
2022-09-11T08:07:01.765Z,14.70
2022-09-11T08:08:01.727Z,14.75
2022-09-11T08:09:01.745Z,14.86
2022-09-11T08:10:25.734Z,14.92
2022-09-11T08:11:01.706Z,14.81
2022-09-11T08:12:01.712Z,14.83
2022-09-11T08:13:01.671Z,14.84
2022-09-11T08:14:01.685Z,14.88
2022-09-11T08:15:01.654Z,14.95
2022-09-11T08:16:01.643Z,15.02
2022-09-11T08:17:01.637Z,15.10
2022-09-11T08:18:01.649Z,15.13
2022-09-11T08:19:01.647Z,14.96
2022-09-11T08:20:01.633Z,14.94
2022-09-11T08:21:01.663Z,15.02
2022-09-11T08:22:01.673Z,15.10
2022-09-11T08:23:01.596Z,15.19
2022-09-11T08:24:01.595Z,15.25
2022-09-11T08:25:01.618Z,15.11
2022-09-11T08:26:01.658Z,15.17
2022-09-11T08:27:01.628Z,15.21
2022-09-11T08:28:01.539Z,15.28
2022-09-11T08:29:01.508Z,15.29
2022-09-11T08:30:01.488Z,15.34
2022-09-11T08:31:01.529Z,15.32
2022-09-11T08:32:02.499Z,15.36
2022-09-11T08:33:01.486Z,15.43
2022-09-11T08:34:01.446Z,15.34
2022-09-11T08:35:01.446Z,15.27
2022-09-11T08:36:01.425Z,15.29
2022-09-11T08:37:01.439Z,15.32
2022-09-11T08:38:01.401Z,15.32
2022-09-11T08:39:01.398Z,15.29
2022-09-11T08:40:01.446Z,15.28
2022-09-11T08:41:01.389Z,15.28
2022-09-11T08:42:01.369Z,15.29
2022-09-11T08:43:01.373Z,15.23
2022-09-11T08:44:01.344Z,15.28
2022-09-11T08:45:01.334Z,15.20
2022-09-11T08:46:01.387Z,15.19
2022-09-11T08:47:01.327Z,15.19
2022-09-11T08:48:01.293Z,15.29
2022-09-11T08:49:01.295Z,15.34
2022-09-11T08:50:01.270Z,15.38
2022-09-11T08:51:01.266Z,15.41
2022-09-11T08:52:01.256Z,15.43
2022-09-11T08:53:01.325Z,15.32
2022-09-11T08:54:01.231Z,15.20
2022-09-11T08:55:01.224Z,15.25
2022-09-11T08:56:01.224Z,15.23
2022-09-11T08:57:01.201Z,15.27
2022-09-11T08:58:01.210Z,15.27
2022-09-11T08:59:01.186Z,15.27
2022-09-11T09:00:01.177Z,15.43
2022-09-11T09:01:01.202Z,15.47
2022-09-11T09:02:01.155Z,15.47
2022-09-11T09:03:01.150Z,15.44
2022-09-11T09:04:01.136Z,15.51
2022-09-11T09:05:01.135Z,15.53
2022-09-11T09:06:01.102Z,15.54
2022-09-11T09:07:01.110Z,15.49
2022-09-11T09:08:01.113Z,15.56
2022-09-11T09:09:01.072Z,15.62
2022-09-11T09:10:01.062Z,15.68
2022-09-11T09:11:01.057Z,15.72
2022-09-11T09:12:01.058Z,15.74
2022-09-11T09:13:01.053Z,15.76
2022-09-11T09:14:01.022Z,15.86
2022-09-11T09:15:01.021Z,15.82
2022-09-11T09:16:01.056Z,15.84
2022-09-11T09:17:01.006Z,15.94
2022-09-11T09:18:01.004Z,16.00
2022-09-11T09:19:00.963Z,16.02
2022-09-11T09:20:00.948Z,16.11
2022-09-11T09:21:00.943Z,16.09
2022-09-11T09:22:00.946Z,16.05
2022-09-11T09:23:00.975Z,16.05
2022-09-11T09:24:00.912Z,15.89
2022-09-11T09:25:00.897Z,15.74
2022-09-11T09:26:00.887Z,15.75
2022-09-11T09:27:00.905Z,15.72
2022-09-11T09:28:00.863Z,15.71
2022-09-11T09:29:00.855Z,15.68
2022-09-11T09:30:00.838Z,15.71
2022-09-11T09:31:00.905Z,15.69
2022-09-11T09:32:00.868Z,15.64
2022-09-11T09:33:00.814Z,15.60
2022-09-11T09:34:00.824Z,15.67
2022-09-11T09:35:00.787Z,15.78
2022-09-11T09:36:00.779Z,15.75
2022-09-11T09:37:00.782Z,15.74
2022-09-11T09:38:00.766Z,15.72
2022-09-11T09:39:00.748Z,15.80
2022-09-11T09:40:00.756Z,15.86
2022-09-11T09:41:00.728Z,15.92
2022-09-11T09:42:00.732Z,16.01
2022-09-11T09:43:00.705Z,16.11
2022-09-11T09:44:00.694Z,16.07
2022-09-11T09:45:00.679Z,16.02
2022-09-11T09:46:00.771Z,16.00
2022-09-11T09:47:00.727Z,16.04
2022-09-11T09:48:00.646Z,16.09
2022-09-11T09:49:00.638Z,16.24
2022-09-11T09:50:00.651Z,16.33
2022-09-11T09:51:00.651Z,16.43
2022-09-11T09:52:04.199Z,16.39
2022-09-11T09:53:00.624Z,16.28
2022-09-11T09:54:00.610Z,16.24
2022-09-11T09:55:00.577Z,16.25
2022-09-11T09:56:00.559Z,16.23
2022-09-11T09:57:00.564Z,16.33
2022-09-11T09:58:00.550Z,16.34
2022-09-11T09:59:00.646Z,16.41
2022-09-11T10:00:00.520Z,16.49
2022-09-11T10:01:00.584Z,16.56
2022-09-11T10:02:00.666Z,16.58
2022-09-11T10:03:00.487Z,16.60
2022-09-11T10:04:00.481Z,16.60
2022-09-11T10:05:00.465Z,16.57
2022-09-11T10:06:00.453Z,16.49
2022-09-11T10:07:00.447Z,16.50
2022-09-11T10:08:00.430Z,16.52
2022-09-11T10:09:03.444Z,16.49
2022-09-11T10:10:00.408Z,16.42
2022-09-11T10:11:00.399Z,16.49
2022-09-11T10:12:00.384Z,16.49
2022-09-11T10:13:18.106Z,16.52
2022-09-11T10:14:00.457Z,16.52
2022-09-11T10:15:00.368Z,16.49
2022-09-11T10:16:00.385Z,16.42
2022-09-11T10:17:00.337Z,16.46
2022-09-11T10:18:00.321Z,16.57
2022-09-11T10:19:00.330Z,16.58
2022-09-11T10:20:00.303Z,16.63
2022-09-11T10:21:01.760Z,16.71
2022-09-11T10:22:00.275Z,16.64
2022-09-11T10:23:00.270Z,16.60
2022-09-11T10:24:00.277Z,16.57
2022-09-11T10:25:00.273Z,16.63
2022-09-11T10:26:00.231Z,16.61
2022-09-11T10:27:00.224Z,16.63
2022-09-11T10:28:00.209Z,16.70
2022-09-11T10:29:00.236Z,16.73
2022-09-11T10:30:00.209Z,16.75
2022-09-11T10:31:00.309Z,16.82
2022-09-11T10:32:00.172Z,16.93
2022-09-11T10:33:03.535Z,16.82
2022-09-11T10:34:00.144Z,16.71
2022-09-11T10:35:00.152Z,16.60
2022-09-11T10:36:00.121Z,16.60
2022-09-11T10:37:00.118Z,16.57
2022-09-11T10:38:00.208Z,16.52
2022-09-11T10:39:00.105Z,16.43
2022-09-11T10:40:00.183Z,16.43
2022-09-11T10:41:00.078Z,16.50
2022-09-11T10:42:00.061Z,16.52
2022-09-11T10:43:00.075Z,16.58
2022-09-11T10:44:00.035Z,16.60
2022-09-11T10:45:00.034Z,16.64
2022-09-11T10:46:00.090Z,16.73
2022-09-11T10:47:00.034Z,16.73
2022-09-11T10:48:00.006Z,16.73
2022-09-11T10:48:59.983Z,16.70
2022-09-11T10:49:59.967Z,16.67
2022-09-11T10:50:59.963Z,16.67
2022-09-11T10:51:59.952Z,16.66
2022-09-11T10:52:59.956Z,16.66
2022-09-11T10:53:59.935Z,16.57
2022-09-11T10:54:59.918Z,16.52
2022-09-11T10:55:59.924Z,16.53
2022-09-11T10:56:59.898Z,16.53
2022-09-11T10:57:59.897Z,16.50
2022-09-11T10:58:59.891Z,16.52
2022-09-11T10:59:59.859Z,16.57
2022-09-11T11:00:59.868Z,16.70
2022-09-11T11:01:59.859Z,16.85
2022-09-11T11:02:59.840Z,16.85
2022-09-11T11:03:59.815Z,16.91
2022-09-11T11:04:59.808Z,17.06
2022-09-11T11:05:59.834Z,17.15
2022-09-11T11:06:59.787Z,17.18
2022-09-11T11:07:59.801Z,17.07
2022-09-11T11:08:59.775Z,17.08
2022-09-11T11:09:59.750Z,17.06
2022-09-11T11:10:59.743Z,17.00
2022-09-11T11:11:59.734Z,16.94
2022-09-11T11:12:59.742Z,17.00
2022-09-11T11:13:59.716Z,17.04
2022-09-11T11:14:59.705Z,17.00
2022-09-11T11:15:59.720Z,17.00
2022-09-11T11:16:59.681Z,17.04
2022-09-11T11:17:59.742Z,17.12
2022-09-11T11:18:59.675Z,17.16
2022-09-11T11:19:59.640Z,17.15
2022-09-11T11:20:59.635Z,17.06
2022-09-11T11:21:59.617Z,17.15
2022-09-11T11:22:59.625Z,17.38
2022-09-11T11:23:59.598Z,17.51
2022-09-11T11:24:59.600Z,17.54
2022-09-11T11:25:59.585Z,17.52
2022-09-11T11:26:59.575Z,17.56
2022-09-11T11:27:59.639Z,17.66
2022-09-11T11:28:59.583Z,17.74
2022-09-11T11:29:59.549Z,17.68
2022-09-11T11:30:59.566Z,17.63
2022-09-11T11:31:59.510Z,17.64
2022-09-11T11:32:59.621Z,17.77
2022-09-11T11:33:59.488Z,17.87
2022-09-11T11:34:59.524Z,17.75
2022-09-11T11:35:59.468Z,17.68
2022-09-11T11:36:59.457Z,17.84
2022-09-11T11:37:59.467Z,18.03
2022-09-11T11:38:59.437Z,18.21
2022-09-11T11:39:59.452Z,18.39
2022-09-11T11:40:59.413Z,18.44
2022-09-11T11:41:59.402Z,18.51
2022-09-11T11:42:59.433Z,18.60
2022-09-11T11:43:59.381Z,18.72
2022-09-11T11:44:59.372Z,18.84
2022-09-11T11:45:59.399Z,18.88
2022-09-11T11:46:59.364Z,18.94
2022-09-11T11:47:59.350Z,18.84
2022-09-11T11:48:59.334Z,18.99
2022-09-11T11:49:59.313Z,19.08
2022-09-11T11:50:59.309Z,19.04
2022-09-11T11:51:59.302Z,19.07
2022-09-11T11:52:59.291Z,19.02
2022-09-11T11:53:59.285Z,18.98
2022-09-11T11:54:59.262Z,18.73
2022-09-11T11:55:59.256Z,18.88
2022-09-11T11:56:59.241Z,19.08
2022-09-11T11:57:59.233Z,19.23
2022-09-11T11:58:59.233Z,19.37
2022-09-11T11:59:59.209Z,19.50
2022-09-11T12:00:59.196Z,19.92
2022-09-11T12:01:59.263Z,20.03
2022-09-11T12:02:59.182Z,20.10
2022-09-11T12:03:59.203Z,19.95
2022-09-11T12:04:59.164Z,19.83
2022-09-11T12:05:59.143Z,19.54
2022-09-11T12:06:59.148Z,19.37
2022-09-11T12:07:59.118Z,19.44
2022-09-11T12:08:59.372Z,19.21
2022-09-11T12:09:59.107Z,18.95
2022-09-11T12:10:59.092Z,18.51
2022-09-11T12:11:59.077Z,18.32
2022-09-11T12:12:59.080Z,18.27
2022-09-11T12:13:59.110Z,18.18
2022-09-11T12:14:59.066Z,18.21
2022-09-11T12:15:59.104Z,18.25
2022-09-11T12:16:59.033Z,18.50
2022-09-11T12:17:59.031Z,19.36
2022-09-11T12:18:59.023Z,19.23
2022-09-11T12:19:58.997Z,19.26
2022-09-11T12:20:59.019Z,19.44
2022-09-11T12:21:58.984Z,19.65
2022-09-11T12:22:58.989Z,20.51
2022-09-11T12:23:58.956Z,20.01
2022-09-11T12:24:59.223Z,19.46
2022-09-11T12:25:58.951Z,19.28
2022-09-11T12:26:58.933Z,20.84
2022-09-11T12:27:58.911Z,21.77
2022-09-11T12:28:58.920Z,21.99
2022-09-11T12:29:58.891Z,22.61
2022-09-11T12:30:58.957Z,21.61
2022-09-11T12:31:58.875Z,22.24
2022-09-11T12:32:58.860Z,23.02
2022-09-11T12:33:58.866Z,23.13
2022-09-11T12:34:58.831Z,23.36
2022-09-11T12:35:58.842Z,22.55
2022-09-11T12:36:58.819Z,22.06
2022-09-11T12:37:58.805Z,22.05
2022-09-11T12:38:58.803Z,22.85
2022-09-11T12:39:58.820Z,22.83
2022-09-11T12:40:58.774Z,23.48
2022-09-11T12:41:58.786Z,23.58
2022-09-11T12:42:58.749Z,23.70
2022-09-11T12:43:58.757Z,23.47
2022-09-11T12:44:58.723Z,23.07
2022-09-11T12:45:58.895Z,22.22
2022-09-11T12:46:58.711Z,22.79
2022-09-11T12:47:58.709Z,23.19
2022-09-11T12:49:20.206Z,22.57
2022-09-11T12:49:58.690Z,21.99
2022-09-11T12:50:58.655Z,21.90
2022-09-11T12:51:58.649Z,22.33
2022-09-11T12:52:58.639Z,22.54
2022-09-11T12:53:58.651Z,22.40
2022-09-11T12:54:58.614Z,22.47
2022-09-11T12:55:58.636Z,21.86
2022-09-11T12:56:58.603Z,21.28
2022-09-11T12:57:58.624Z,21.42
2022-09-11T12:58:58.601Z,20.99
2022-09-11T12:59:58.567Z,20.87
2022-09-11T13:00:58.543Z,20.64
2022-09-11T13:01:58.666Z,20.92
2022-09-11T13:02:58.532Z,21.24
2022-09-11T13:03:58.529Z,21.24
2022-09-11T13:04:58.501Z,21.09
2022-09-11T13:05:58.495Z,21.32
2022-09-11T13:06:58.483Z,21.24
2022-09-11T13:07:58.476Z,20.88
2022-09-11T13:08:58.472Z,20.95
2022-09-11T13:09:58.451Z,21.07
2022-09-11T13:10:58.445Z,20.99
2022-09-11T13:11:58.436Z,20.39
2022-09-11T13:12:58.413Z,20.50
2022-09-11T13:13:58.422Z,20.72
2022-09-11T13:14:58.398Z,20.92
2022-09-11T13:15:58.428Z,21.04
2022-09-11T13:16:58.381Z,21.03
2022-09-11T13:17:58.364Z,21.12
2022-09-11T13:18:58.370Z,21.22
2022-09-11T13:19:58.343Z,21.04
2022-09-11T13:20:58.328Z,20.80
2022-09-11T13:21:58.341Z,20.76
2022-09-11T13:22:58.781Z,20.39
2022-09-11T13:23:58.322Z,20.72
2022-09-11T13:24:58.292Z,20.88
2022-09-11T13:25:58.292Z,20.87
2022-09-11T13:26:58.261Z,21.09
2022-09-11T13:27:58.256Z,21.16
2022-09-11T13:28:58.259Z,21.37
2022-09-11T13:29:58.233Z,21.35
2022-09-11T13:30:58.290Z,21.09
2022-09-11T13:31:58.224Z,20.94
2022-09-11T13:32:58.202Z,20.95
2022-09-11T13:33:58.208Z,20.57
2022-09-11T13:34:58.187Z,20.64
2022-09-11T13:35:58.174Z,20.94
2022-09-11T13:36:58.155Z,21.09
2022-09-11T13:37:58.154Z,21.03
2022-09-11T13:38:58.150Z,20.94
2022-09-11T13:39:58.198Z,20.89
2022-09-11T13:40:58.111Z,20.98
2022-09-11T13:41:58.116Z,21.22
2022-09-11T13:42:58.090Z,21.34
2022-09-11T13:43:58.581Z,21.07
2022-09-11T13:44:58.066Z,21.21
2022-09-11T13:45:58.144Z,21.38
2022-09-11T13:46:58.088Z,21.42
2022-09-11T13:47:58.056Z,21.09
2022-09-11T13:48:58.025Z,20.92
2022-09-11T13:49:58.034Z,20.94
2022-09-11T13:50:58.009Z,21.06
2022-09-11T13:51:57.995Z,21.17
2022-09-11T13:52:57.981Z,21.17
2022-09-11T13:53:57.979Z,21.01
2022-09-11T13:54:57.980Z,20.77
2022-09-11T13:55:57.951Z,20.85
2022-09-11T13:56:57.990Z,20.99
2022-09-11T13:57:57.948Z,20.99
2022-09-11T13:59:02.259Z,20.84
2022-09-11T13:59:57.935Z,20.89
2022-09-11T14:00:57.896Z,20.98
2022-09-11T14:01:57.914Z,20.87
2022-09-11T14:02:57.873Z,20.73
2022-09-11T14:03:57.868Z,20.72
2022-09-11T14:04:57.871Z,20.84
2022-09-11T14:05:57.842Z,20.98
2022-09-11T14:06:57.832Z,21.09
2022-09-11T14:07:57.824Z,20.95
2022-09-11T14:08:57.819Z,20.80
2022-09-11T14:09:57.815Z,20.59
2022-09-11T14:10:57.806Z,20.41
2022-09-11T14:11:57.783Z,20.01
2022-09-11T14:12:57.793Z,19.91
2022-09-11T14:13:57.768Z,20.08
2022-09-11T14:14:57.768Z,20.17
2022-09-11T14:15:57.791Z,20.36
2022-09-11T14:16:57.728Z,20.58
2022-09-11T14:17:57.727Z,20.70
2022-09-11T14:18:57.701Z,20.76
2022-09-11T14:20:00.872Z,20.67
2022-09-11T14:20:57.686Z,20.74
2022-09-11T14:21:57.679Z,20.74
2022-09-11T14:22:57.667Z,20.92
2022-09-11T14:23:57.662Z,20.73
2022-09-11T14:24:57.674Z,20.76
2022-09-11T14:25:57.666Z,20.61
2022-09-11T14:26:57.626Z,20.69
2022-09-11T14:27:57.615Z,20.67
2022-09-11T14:29:00.507Z,20.59
2022-09-11T14:29:57.593Z,20.67
2022-09-11T14:30:57.639Z,20.82
2022-09-11T14:31:57.572Z,20.97
2022-09-11T14:32:57.567Z,20.97
2022-09-11T14:33:57.555Z,21.04
2022-09-11T14:34:57.535Z,21.12
2022-09-11T14:35:57.542Z,21.21
2022-09-11T14:36:57.527Z,20.99
2022-09-11T14:37:57.501Z,20.91
2022-09-11T14:38:57.486Z,20.99
2022-09-11T14:39:57.526Z,20.91
2022-09-11T14:40:57.490Z,20.94
2022-09-11T14:41:57.463Z,20.98
2022-09-11T14:42:57.521Z,20.98
2022-09-11T14:43:57.463Z,21.01
2022-09-11T14:44:57.441Z,20.99
2022-09-11T14:45:57.442Z,20.84
2022-09-11T14:46:57.403Z,20.52
2022-09-11T14:47:57.447Z,20.35
2022-09-11T14:48:57.381Z,20.24
2022-09-11T14:49:57.420Z,20.28
2022-09-11T14:50:57.383Z,20.18
2022-09-11T14:51:57.359Z,20.17
2022-09-11T14:52:57.339Z,20.18
2022-09-11T14:53:57.336Z,20.16
2022-09-11T14:54:57.331Z,20.05
2022-09-11T14:55:57.317Z,20.03
2022-09-11T14:56:57.299Z,20.11
2022-09-11T14:57:57.291Z,20.24
2022-09-11T14:58:57.278Z,20.35
2022-09-11T14:59:57.323Z,20.29
2022-09-11T15:00:57.272Z,20.39
2022-09-11T15:01:57.249Z,20.39
2022-09-11T15:02:57.289Z,20.39
2022-09-11T15:03:57.222Z,20.50
2022-09-11T15:04:57.243Z,20.58
2022-09-11T15:05:57.203Z,20.77
2022-09-11T15:06:57.192Z,20.98
2022-09-11T15:07:58.961Z,21.04
2022-09-11T15:08:57.179Z,21.06
2022-09-11T15:09:57.174Z,21.06
2022-09-11T15:10:57.153Z,20.95
2022-09-11T15:11:57.142Z,20.91
2022-09-11T15:12:57.122Z,20.84
2022-09-11T15:14:16.036Z,20.84
2022-09-11T15:14:58.773Z,20.84
2022-09-11T15:15:57.148Z,20.80
2022-09-11T15:16:57.090Z,20.72
2022-09-11T15:17:57.077Z,20.61
2022-09-11T15:18:57.055Z,20.61
2022-09-11T15:19:57.080Z,20.64
2022-09-11T15:20:57.035Z,20.61
2022-09-11T15:21:57.038Z,20.66
2022-09-11T15:22:57.025Z,20.61
2022-09-11T15:23:57.015Z,20.52
2022-09-11T15:24:57.015Z,20.61
2022-09-11T15:25:56.989Z,20.50
2022-09-11T15:26:57.033Z,20.50
2022-09-11T15:27:56.971Z,20.52
2022-09-11T15:28:56.956Z,20.61
2022-09-11T15:29:56.983Z,20.69
2022-09-11T15:30:57.008Z,20.79
2022-09-11T15:31:56.932Z,20.79
2022-09-11T15:32:57.051Z,20.95
2022-09-11T15:33:56.903Z,21.12
2022-09-11T15:34:56.926Z,21.21
2022-09-11T15:35:56.889Z,21.17
2022-09-11T15:36:56.865Z,21.13
2022-09-11T15:37:56.858Z,21.09
2022-09-11T15:38:56.852Z,21.01
2022-09-11T15:39:56.914Z,20.97
2022-09-11T15:40:56.835Z,20.80
2022-09-11T15:41:56.820Z,20.55
2022-09-11T15:42:56.824Z,20.42
2022-09-11T15:43:56.807Z,20.29
2022-09-11T15:44:56.795Z,20.33
2022-09-11T15:45:56.787Z,20.48
2022-09-11T15:46:56.756Z,20.43
2022-09-11T15:47:56.765Z,20.47
2022-09-11T15:48:56.741Z,20.48
2022-09-11T15:49:56.763Z,20.61
2022-09-11T15:50:56.742Z,20.69
2022-09-11T15:51:56.708Z,20.70
2022-09-11T15:52:56.700Z,20.80
2022-09-11T15:53:56.700Z,20.79
2022-09-11T15:54:56.690Z,20.73
2022-09-11T15:55:56.662Z,20.64
2022-09-11T15:56:56.670Z,20.59
2022-09-11T15:57:56.678Z,20.59
2022-09-11T15:58:56.648Z,20.62
2022-09-11T15:59:56.638Z,20.57
2022-09-11T16:00:56.654Z,20.58
2022-09-11T16:01:56.615Z,20.61
2022-09-11T16:02:56.589Z,20.62
2022-09-11T16:03:56.583Z,20.61
2022-09-11T16:04:56.605Z,20.69
2022-09-11T16:05:56.562Z,20.67
2022-09-11T16:06:56.548Z,20.58
2022-09-11T16:07:56.565Z,20.48
2022-09-11T16:08:56.516Z,20.38
2022-09-11T16:09:56.546Z,20.31
2022-09-11T16:10:56.494Z,20.28
2022-09-11T16:11:56.494Z,20.26
2022-09-11T16:12:58.856Z,20.13
2022-09-11T16:13:56.481Z,20.14
2022-09-11T16:14:56.476Z,20.20
2022-09-11T16:15:56.491Z,20.24
2022-09-11T16:16:56.432Z,20.28
2022-09-11T16:17:56.427Z,20.16
2022-09-11T16:18:56.409Z,20.03
2022-09-11T16:19:56.422Z,20.08
2022-09-11T16:20:56.386Z,20.10
2022-09-11T16:21:56.411Z,20.16
2022-09-11T16:22:56.363Z,20.16
2022-09-11T16:24:01.276Z,20.01
2022-09-11T16:24:56.371Z,19.94
2022-09-11T16:25:56.348Z,19.88
2022-09-11T16:26:56.352Z,19.91
2022-09-11T16:27:56.308Z,19.88
2022-09-11T16:28:56.302Z,19.96
2022-09-11T16:30:32.297Z,19.95
2022-09-11T16:30:56.379Z,19.91
2022-09-11T16:31:56.270Z,19.88
2022-09-11T16:32:56.251Z,19.83
2022-09-11T16:33:56.245Z,19.80
2022-09-11T16:34:56.246Z,19.74
2022-09-11T16:35:56.218Z,19.74
2022-09-11T16:36:56.214Z,19.73
2022-09-11T16:37:56.196Z,19.73
2022-09-11T16:38:56.183Z,19.74
2022-09-11T16:39:56.231Z,19.66
2022-09-11T16:40:56.162Z,19.63
2022-09-11T16:41:56.152Z,19.66
2022-09-11T16:42:56.143Z,19.71
2022-09-11T16:43:56.130Z,19.74
2022-09-11T16:44:56.136Z,19.69
2022-09-11T16:45:56.210Z,19.68
2022-09-11T16:46:56.092Z,19.65
2022-09-11T16:47:56.089Z,19.65
2022-09-11T16:48:59.806Z,19.54
2022-09-11T16:50:06.967Z,19.40
2022-09-11T16:50:56.072Z,19.44
2022-09-11T16:51:56.035Z,19.48
2022-09-11T16:52:56.039Z,19.44
2022-09-11T16:53:56.016Z,19.33
2022-09-11T16:54:56.032Z,19.25
2022-09-11T16:55:56.006Z,19.18
2022-09-11T16:56:56.004Z,19.16
2022-09-11T16:57:55.969Z,19.10
2022-09-11T16:58:55.974Z,19.00
2022-09-11T16:59:55.985Z,18.88
2022-09-11T17:00:55.967Z,18.76
2022-09-11T17:01:55.953Z,18.62
2022-09-11T17:02:55.919Z,18.54
2022-09-11T17:03:55.912Z,18.48
2022-09-11T17:04:55.948Z,18.42
2022-09-11T17:05:55.898Z,18.41
2022-09-11T17:06:55.883Z,18.33
2022-09-11T17:07:55.876Z,18.29
2022-09-11T17:08:55.864Z,18.26
2022-09-11T17:09:55.867Z,18.25
2022-09-11T17:10:55.842Z,18.25
2022-09-11T17:11:55.818Z,18.27
2022-09-11T17:12:55.808Z,18.32
2022-09-11T17:13:55.805Z,18.39
2022-09-11T17:14:55.808Z,18.41
2022-09-11T17:15:55.786Z,18.44
2022-09-11T17:16:55.785Z,18.37
2022-09-11T17:17:55.749Z,18.33
2022-09-11T17:18:55.741Z,18.36
2022-09-11T17:19:55.729Z,18.35
2022-09-11T17:20:55.734Z,18.37
2022-09-11T17:21:55.706Z,18.37
2022-09-11T17:22:58.050Z,18.41
2022-09-11T17:23:55.746Z,18.39
2022-09-11T17:24:55.682Z,18.32
2022-09-11T17:25:55.681Z,18.25
2022-09-11T17:26:55.668Z,18.14
2022-09-11T17:27:55.653Z,18.02
2022-09-11T17:28:55.636Z,17.93
2022-09-11T17:29:55.620Z,17.86
2022-09-11T17:30:55.629Z,17.75
2022-09-11T17:32:16.706Z,17.70
2022-09-11T17:32:55.614Z,17.58
2022-09-11T17:33:55.587Z,17.51
2022-09-11T17:34:55.601Z,17.48
2022-09-11T17:35:55.572Z,17.40
2022-09-11T17:36:55.549Z,17.36
2022-09-11T17:37:55.560Z,17.30